sensor_id;sensor_type;location;lat;lon;timestamp;temperature;humidity
37658;DHT22;23500;53.268;8.308;2022-11-18T00:01:16;13.90;70.90
37658;DHT22;23500;53.268;8.308;2022-11-18T00:03:42;13.80;71.90
37658;DHT22;23500;53.268;8.308;2022-11-18T00:06:16;13.80;71.80
37658;DHT22;23500;53.268;8.308;2022-11-18T00:08:43;13.80;71.10
37658;DHT22;23500;53.268;8.308;2022-11-18T00:11:14;13.80;72.30
37658;DHT22;23500;53.268;8.308;2022-11-18T00:14:04;13.80;70.80
37658;DHT22;23500;53.268;8.308;2022-11-18T00:16:46;13.80;71.10
37658;DHT22;23500;53.268;8.308;2022-11-18T00:19:13;13.70;70.30
37658;DHT22;23500;53.268;8.308;2022-11-18T00:21:38;13.70;71.70
37658;DHT22;23500;53.268;8.308;2022-11-18T00:24:04;13.80;72.70
37658;DHT22;23500;53.268;8.308;2022-11-18T00:26:30;13.70;72.80
37658;DHT22;23500;53.268;8.308;2022-11-18T00:28:56;13.70;72.50
37658;DHT22;23500;53.268;8.308;2022-11-18T00:31:21;13.70;73.30
37658;DHT22;23500;53.268;8.308;2022-11-18T00:33:47;13.80;72.70
37658;DHT22;23500;53.268;8.308;2022-11-18T00:36:12;13.80;71.60
37658;DHT22;23500;53.268;8.308;2022-11-18T00:38:39;13.70;72.40
37658;DHT22;23500;53.268;8.308;2022-11-18T00:43:32;13.70;72.60
37658;DHT22;23500;53.268;8.308;2022-11-18T00:45:58;13.70;72.40
37658;DHT22;23500;53.268;8.308;2022-11-18T00:48:24;13.70;72.50
37658;DHT22;23500;53.268;8.308;2022-11-18T00:50:52;13.70;72.30
37658;DHT22;23500;53.268;8.308;2022-11-18T00:53:20;13.70;73.20
37658;DHT22;23500;53.268;8.308;2022-11-18T00:55:47;13.70;72.90
37658;DHT22;23500;53.268;8.308;2022-11-18T00:58:12;13.70;73.10
37658;DHT22;23500;53.268;8.308;2022-11-18T01:00:42;13.70;72.10
37658;DHT22;23500;53.268;8.308;2022-11-18T01:03:09;13.70;72.40
37658;DHT22;23500;53.268;8.308;2022-11-18T01:05:35;13.70;72.00
37658;DHT22;23500;53.268;8.308;2022-11-18T01:08:02;13.70;73.20
37658;DHT22;23500;53.268;8.308;2022-11-18T01:10:27;13.60;73.30
37658;DHT22;23500;53.268;8.308;2022-11-18T01:12:53;13.70;72.50
37658;DHT22;23500;53.268;8.308;2022-11-18T01:15:42;13.60;72.30
37658;DHT22;23500;53.268;8.308;2022-11-18T01:18:08;13.60;71.10
37658;DHT22;23500;53.268;8.308;2022-11-18T01:20:34;13.60;72.20
37658;DHT22;23500;53.268;8.308;2022-11-18T01:23:00;13.60;71.70
37658;DHT22;23500;53.268;8.308;2022-11-18T01:25:26;13.60;70.90
37658;DHT22;23500;53.268;8.308;2022-11-18T01:27:52;13.60;71.80
37658;DHT22;23500;53.268;8.308;2022-11-18T01:30:18;13.50;72.30
37658;DHT22;23500;53.268;8.308;2022-11-18T01:32:44;13.50;72.90
37658;DHT22;23500;53.268;8.308;2022-11-18T01:35:10;13.50;72.30
37658;DHT22;23500;53.268;8.308;2022-11-18T01:37:36;13.50;72.80
37658;DHT22;23500;53.268;8.308;2022-11-18T01:40:04;13.50;71.10
37658;DHT22;23500;53.268;8.308;2022-11-18T01:42:30;13.50;73.10
37658;DHT22;23500;53.268;8.308;2022-11-18T01:48:05;13.50;73.90
37658;DHT22;23500;53.268;8.308;2022-11-18T01:50:35;13.50;72.90
37658;DHT22;23500;53.268;8.308;2022-11-18T01:53:21;13.50;72.20
37658;DHT22;23500;53.268;8.308;2022-11-18T01:55:50;13.40;73.70
37658;DHT22;23500;53.268;8.308;2022-11-18T01:58:37;13.50;71.90
37658;DHT22;23500;53.268;8.308;2022-11-18T02:01:04;13.40;72.30
37658;DHT22;23500;53.268;8.308;2022-11-18T02:03:31;13.40;71.40
37658;DHT22;23500;53.268;8.308;2022-11-18T02:05:59;13.40;71.40
37658;DHT22;23500;53.268;8.308;2022-11-18T02:08:26;13.40;71.30
37658;DHT22;23500;53.268;8.308;2022-11-18T02:10:52;13.40;73.10
37658;DHT22;23500;53.268;8.308;2022-11-18T02:13:18;13.40;71.50
37658;DHT22;23500;53.268;8.308;2022-11-18T02:18:59;13.30;72.60
37658;DHT22;23500;53.268;8.308;2022-11-18T02:24:51;13.30;74.30
37658;DHT22;23500;53.268;8.308;2022-11-18T02:27:38;13.30;73.00
37658;DHT22;23500;53.268;8.308;2022-11-18T02:30:12;13.30;72.40
37658;DHT22;23500;53.268;8.308;2022-11-18T02:33:05;13.30;73.90
37658;DHT22;23500;53.268;8.308;2022-11-18T02:35:42;13.30;72.80
37658;DHT22;23500;53.268;8.308;2022-11-18T02:38:15;13.30;75.10
37658;DHT22;23500;53.268;8.308;2022-11-18T02:40:52;13.30;73.80
37658;DHT22;23500;53.268;8.308;2022-11-18T02:45:54;13.30;73.20
37658;DHT22;23500;53.268;8.308;2022-11-18T02:48:24;13.30;74.00
37658;DHT22;23500;53.268;8.308;2022-11-18T02:50:52;13.30;73.60
37658;DHT22;23500;53.268;8.308;2022-11-18T02:53:20;13.30;73.50
37658;DHT22;23500;53.268;8.308;2022-11-18T02:55:46;13.30;73.60
37658;DHT22;23500;53.268;8.308;2022-11-18T02:58:15;13.30;73.50
37658;DHT22;23500;53.268;8.308;2022-11-18T03:00:43;13.30;73.60
37658;DHT22;23500;53.268;8.308;2022-11-18T03:03:26;13.30;72.10
37658;DHT22;23500;53.268;8.308;2022-11-18T03:08:25;13.20;73.70
37658;DHT22;23500;53.268;8.308;2022-11-18T03:13:51;13.20;72.50
37658;DHT22;23500;53.268;8.308;2022-11-18T03:16:26;13.20;73.30
37658;DHT22;23500;53.268;8.308;2022-11-18T03:22:01;13.20;73.30
37658;DHT22;23500;53.268;8.308;2022-11-18T03:24:32;13.20;73.00
37658;DHT22;23500;53.268;8.308;2022-11-18T03:27:24;13.20;72.90
37658;DHT22;23500;53.268;8.308;2022-11-18T03:30:02;13.20;74.00
37658;DHT22;23500;53.268;8.308;2022-11-18T03:32:32;13.10;74.00
37658;DHT22;23500;53.268;8.308;2022-11-18T03:35:10;13.10;73.40
37658;DHT22;23500;53.268;8.308;2022-11-18T03:37:38;13.10;73.50
37658;DHT22;23500;53.268;8.308;2022-11-18T03:40:16;13.10;72.90
37658;DHT22;23500;53.268;8.308;2022-11-18T03:42:52;13.10;74.40
37658;DHT22;23500;53.268;8.308;2022-11-18T03:45:29;13.10;74.20
37658;DHT22;23500;53.268;8.308;2022-11-18T03:48:16;13.10;74.60
37658;DHT22;23500;53.268;8.308;2022-11-18T03:50:45;13.10;74.20
37658;DHT22;23500;53.268;8.308;2022-11-18T03:53:12;13.10;73.90
37658;DHT22;23500;53.268;8.308;2022-11-18T03:55:41;13.10;73.60
37658;DHT22;23500;53.268;8.308;2022-11-18T03:58:16;13.10;73.00
37658;DHT22;23500;53.268;8.308;2022-11-18T04:00:46;13.10;74.10
37658;DHT22;23500;53.268;8.308;2022-11-18T04:03:13;13.10;73.80
37658;DHT22;23500;53.268;8.308;2022-11-18T04:05:40;13.10;72.80
37658;DHT22;23500;53.268;8.308;2022-11-18T04:08:20;13.10;73.50
37658;DHT22;23500;53.268;8.308;2022-11-18T04:11:32;13.10;74.30
37658;DHT22;23500;53.268;8.308;2022-11-18T04:13:58;13.10;73.30
37658;DHT22;23500;53.268;8.308;2022-11-18T04:16:24;13.10;70.40
37658;DHT22;23500;53.268;8.308;2022-11-18T04:18:50;13.10;73.30
37658;DHT22;23500;53.268;8.308;2022-11-18T04:21:15;13.10;70.90
37658;DHT22;23500;53.268;8.308;2022-11-18T04:23:41;13.00;73.20
37658;DHT22;23500;53.268;8.308;2022-11-18T04:26:08;13.00;71.90
37658;DHT22;23500;53.268;8.308;2022-11-18T04:28:34;13.00;73.70
37658;DHT22;23500;53.268;8.308;2022-11-18T04:31:00;13.00;73.00
37658;DHT22;23500;53.268;8.308;2022-11-18T04:33:25;13.00;72.20
37658;DHT22;23500;53.268;8.308;2022-11-18T04:35:51;13.00;71.60
37658;DHT22;23500;53.268;8.308;2022-11-18T04:38:16;13.00;75.00
37658;DHT22;23500;53.268;8.308;2022-11-18T04:40:42;13.00;73.90
37658;DHT22;23500;53.268;8.308;2022-11-18T04:43:10;13.00;72.20
37658;DHT22;23500;53.268;8.308;2022-11-18T04:45:35;13.00;72.20
37658;DHT22;23500;53.268;8.308;2022-11-18T04:48:01;13.00;74.20
37658;DHT22;23500;53.268;8.308;2022-11-18T04:50:26;13.00;73.80
37658;DHT22;23500;53.268;8.308;2022-11-18T04:52:52;13.00;74.60
37658;DHT22;23500;53.268;8.308;2022-11-18T04:55:18;13.00;73.90
37658;DHT22;23500;53.268;8.308;2022-11-18T04:57:44;13.00;73.40
37658;DHT22;23500;53.268;8.308;2022-11-18T05:00:10;13.00;73.10
37658;DHT22;23500;53.268;8.308;2022-11-18T05:02:36;13.00;74.20
37658;DHT22;23500;53.268;8.308;2022-11-18T05:05:02;13.00;74.40
37658;DHT22;23500;53.268;8.308;2022-11-18T05:07:27;13.00;73.50
37658;DHT22;23500;53.268;8.308;2022-11-18T05:09:53;13.00;73.90
37658;DHT22;23500;53.268;8.308;2022-11-18T05:12:19;13.00;73.90
37658;DHT22;23500;53.268;8.308;2022-11-18T05:15:03;13.00;74.30
37658;DHT22;23500;53.268;8.308;2022-11-18T05:17:29;13.00;74.30
37658;DHT22;23500;53.268;8.308;2022-11-18T05:19:54;13.00;74.10
37658;DHT22;23500;53.268;8.308;2022-11-18T05:22:20;13.00;72.60
37658;DHT22;23500;53.268;8.308;2022-11-18T05:24:45;12.90;71.90
37658;DHT22;23500;53.268;8.308;2022-11-18T05:27:12;12.90;72.10
37658;DHT22;23500;53.268;8.308;2022-11-18T05:29:37;13.00;72.60
37658;DHT22;23500;53.268;8.308;2022-11-18T05:32:04;12.90;73.60
37658;DHT22;23500;53.268;8.308;2022-11-18T05:34:29;12.90;72.60
37658;DHT22;23500;53.268;8.308;2022-11-18T05:36:55;12.90;73.30
37658;DHT22;23500;53.268;8.308;2022-11-18T05:39:20;12.90;73.00
37658;DHT22;23500;53.268;8.308;2022-11-18T05:41:46;12.90;72.70
37658;DHT22;23500;53.268;8.308;2022-11-18T05:44:30;12.90;72.90
37658;DHT22;23500;53.268;8.308;2022-11-18T05:46:56;12.90;72.80
37658;DHT22;23500;53.268;8.308;2022-11-18T05:49:22;12.90;71.90
37658;DHT22;23500;53.268;8.308;2022-11-18T05:51:48;12.90;72.10
37658;DHT22;23500;53.268;8.308;2022-11-18T05:54:15;12.80;72.30
37658;DHT22;23500;53.268;8.308;2022-11-18T05:56:42;12.80;71.10
37658;DHT22;23500;53.268;8.308;2022-11-18T05:59:11;12.80;72.00
37658;DHT22;23500;53.268;8.308;2022-11-18T06:02:02;12.80;72.10
37658;DHT22;23500;53.268;8.308;2022-11-18T06:04:30;12.80;70.90
37658;DHT22;23500;53.268;8.308;2022-11-18T06:07:18;12.80;69.90
37658;DHT22;23500;53.268;8.308;2022-11-18T06:09:46;12.80;73.10
37658;DHT22;23500;53.268;8.308;2022-11-18T06:12:18;12.70;72.00
37658;DHT22;23500;53.268;8.308;2022-11-18T06:14:57;12.70;73.20
37658;DHT22;23500;53.268;8.308;2022-11-18T06:17:29;12.70;72.50
37658;DHT22;23500;53.268;8.308;2022-11-18T06:19:57;12.70;73.50
37658;DHT22;23500;53.268;8.308;2022-11-18T06:22:23;12.70;72.10
37658;DHT22;23500;53.268;8.308;2022-11-18T06:24:49;12.80;71.80
37658;DHT22;23500;53.268;8.308;2022-11-18T06:27:15;12.90;72.10
37658;DHT22;23500;53.268;8.308;2022-11-18T06:29:41;13.00;72.10
37658;DHT22;23500;53.268;8.308;2022-11-18T06:32:07;13.00;72.30
37658;DHT22;23500;53.268;8.308;2022-11-18T06:34:32;13.20;74.80
37658;DHT22;23500;53.268;8.308;2022-11-18T06:36:58;13.40;76.80
37658;DHT22;23500;53.268;8.308;2022-11-18T06:39:24;14.00;78.40
37658;DHT22;23500;53.268;8.308;2022-11-18T06:41:52;14.70;76.10
37658;DHT22;23500;53.268;8.308;2022-11-18T06:44:18;15.50;73.70
37658;DHT22;23500;53.268;8.308;2022-11-18T06:46:44;16.20;71.10
37658;DHT22;23500;53.268;8.308;2022-11-18T06:49:23;16.90;69.00
37658;DHT22;23500;53.268;8.308;2022-11-18T06:51:49;17.60;66.70
37658;DHT22;23500;53.268;8.308;2022-11-18T06:54:15;18.20;64.70
37658;DHT22;23500;53.268;8.308;2022-11-18T06:56:40;18.50;63.50
37658;DHT22;23500;53.268;8.308;2022-11-18T06:59:06;18.60;62.70
37658;DHT22;23500;53.268;8.308;2022-11-18T07:01:35;18.70;62.30
37658;DHT22;23500;53.268;8.308;2022-11-18T07:04:01;18.70;62.00
37658;DHT22;23500;53.268;8.308;2022-11-18T07:06:30;18.70;62.00
37658;DHT22;23500;53.268;8.308;2022-11-18T07:08:56;18.60;62.50
37658;DHT22;23500;53.268;8.308;2022-11-18T07:11:24;18.40;62.10
37658;DHT22;23500;53.268;8.308;2022-11-18T07:13:50;18.30;62.60
37658;DHT22;23500;53.268;8.308;2022-11-18T07:16:18;18.10;62.80
37658;DHT22;23500;53.268;8.308;2022-11-18T07:18:45;18.00;63.10
37658;DHT22;23500;53.268;8.308;2022-11-18T07:21:22;17.80;62.80
37658;DHT22;23500;53.268;8.308;2022-11-18T07:23:48;17.60;63.40
37658;DHT22;23500;53.268;8.308;2022-11-18T07:26:14;17.50;62.60
37658;DHT22;23500;53.268;8.308;2022-11-18T07:28:40;17.30;64.30
37658;DHT22;23500;53.268;8.308;2022-11-18T07:31:09;17.10;60.70
37658;DHT22;23500;53.268;8.308;2022-11-18T07:33:35;16.90;59.10
37658;DHT22;23500;53.268;8.308;2022-11-18T07:36:13;16.70;58.30
37658;DHT22;23500;53.268;8.308;2022-11-18T07:38:39;16.60;58.10
37658;DHT22;23500;53.268;8.308;2022-11-18T07:41:07;16.40;59.00
37658;DHT22;23500;53.268;8.308;2022-11-18T07:43:34;16.20;59.60
37658;DHT22;23500;53.268;8.308;2022-11-18T07:46:21;16.00;58.40
37658;DHT22;23500;53.268;8.308;2022-11-18T07:48:48;15.90;59.30
37658;DHT22;23500;53.268;8.308;2022-11-18T07:51:16;15.70;61.40
37658;DHT22;23500;53.268;8.308;2022-11-18T07:53:42;15.60;62.00
37658;DHT22;23500;53.268;8.308;2022-11-18T07:56:09;15.50;62.30
37658;DHT22;23500;53.268;8.308;2022-11-18T07:58:36;15.50;61.30
37658;DHT22;23500;53.268;8.308;2022-11-18T08:01:19;15.40;62.30
37658;DHT22;23500;53.268;8.308;2022-11-18T08:03:46;15.40;60.60
37658;DHT22;23500;53.268;8.308;2022-11-18T08:06:14;15.30;61.00
37658;DHT22;23500;53.268;8.308;2022-11-18T08:08:40;15.30;62.50
37658;DHT22;23500;53.268;8.308;2022-11-18T08:11:08;15.30;61.50
37658;DHT22;23500;53.268;8.308;2022-11-18T08:13:35;15.30;61.60
37658;DHT22;23500;53.268;8.308;2022-11-18T08:16:01;15.30;63.80
37658;DHT22;23500;53.268;8.308;2022-11-18T08:18:29;15.30;62.90
37658;DHT22;23500;53.268;8.308;2022-11-18T08:20:55;15.40;62.00
37658;DHT22;23500;53.268;8.308;2022-11-18T08:23:25;15.30;61.60
37658;DHT22;23500;53.268;8.308;2022-11-18T08:25:52;15.30;61.00
37658;DHT22;23500;53.268;8.308;2022-11-18T08:28:17;15.30;59.80
37658;DHT22;23500;53.268;8.308;2022-11-18T08:30:43;15.30;60.30
37658;DHT22;23500;53.268;8.308;2022-11-18T08:33:09;15.30;61.20
37658;DHT22;23500;53.268;8.308;2022-11-18T08:35:35;15.30;61.90
37658;DHT22;23500;53.268;8.308;2022-11-18T08:38:00;15.30;61.30
37658;DHT22;23500;53.268;8.308;2022-11-18T08:40:26;15.30;61.90
37658;DHT22;23500;53.268;8.308;2022-11-18T08:42:52;15.30;62.00
37658;DHT22;23500;53.268;8.308;2022-11-18T08:45:17;15.20;62.30
37658;DHT22;23500;53.268;8.308;2022-11-18T08:47:43;15.20;62.40
37658;DHT22;23500;53.268;8.308;2022-11-18T08:50:10;15.10;60.60
37658;DHT22;23500;53.268;8.308;2022-11-18T08:52:36;15.10;62.80
37658;DHT22;23500;53.268;8.308;2022-11-18T08:55:02;15.00;61.80
37658;DHT22;23500;53.268;8.308;2022-11-18T08:57:29;14.90;62.60
37658;DHT22;23500;53.268;8.308;2022-11-18T08:59:55;14.90;62.70
37658;DHT22;23500;53.268;8.308;2022-11-18T09:02:22;14.80;63.20
37658;DHT22;23500;53.268;8.308;2022-11-18T09:04:49;14.80;62.20
37658;DHT22;23500;53.268;8.308;2022-11-18T09:07:18;14.70;60.70
37658;DHT22;23500;53.268;8.308;2022-11-18T09:09:44;14.70;61.40
37658;DHT22;23500;53.268;8.308;2022-11-18T09:12:10;14.80;62.20
37658;DHT22;23500;53.268;8.308;2022-11-18T09:14:42;14.80;62.00
37658;DHT22;23500;53.268;8.308;2022-11-18T09:17:08;14.80;62.10
37658;DHT22;23500;53.268;8.308;2022-11-18T09:19:34;14.80;62.90
37658;DHT22;23500;53.268;8.308;2022-11-18T09:21:59;14.90;62.10
37658;DHT22;23500;53.268;8.308;2022-11-18T09:24:25;14.90;61.60
37658;DHT22;23500;53.268;8.308;2022-11-18T09:26:51;14.90;60.70
37658;DHT22;23500;53.268;8.308;2022-11-18T09:29:18;14.90;61.00
37658;DHT22;23500;53.268;8.308;2022-11-18T09:31:46;14.90;63.20
37658;DHT22;23500;53.268;8.308;2022-11-18T09:34:12;14.90;64.30
37658;DHT22;23500;53.268;8.308;2022-11-18T09:36:38;14.90;63.20
37658;DHT22;23500;53.268;8.308;2022-11-18T09:39:03;14.90;61.70
37658;DHT22;23500;53.268;8.308;2022-11-18T09:49:44;14.80;63.40
37658;DHT22;23500;53.268;8.308;2022-11-18T09:54:51;14.70;64.00
37658;DHT22;23500;53.268;8.308;2022-11-18T09:57:24;14.70;65.00
37658;DHT22;23500;53.268;8.308;2022-11-18T09:59:50;14.70;62.90
37658;DHT22;23500;53.268;8.308;2022-11-18T10:02:27;14.60;61.60
37658;DHT22;23500;53.268;8.308;2022-11-18T10:05:42;14.60;60.50
37658;DHT22;23500;53.268;8.308;2022-11-18T10:14:11;14.60;61.00
37658;DHT22;23500;53.268;8.308;2022-11-18T10:16:42;14.60;61.50
37658;DHT22;23500;53.268;8.308;2022-11-18T10:24:34;14.70;61.50
37658;DHT22;23500;53.268;8.308;2022-11-18T10:27:00;14.70;63.40
37658;DHT22;23500;53.268;8.308;2022-11-18T10:29:26;14.80;61.00
37658;DHT22;23500;53.268;8.308;2022-11-18T10:32:02;14.80;60.00
37658;DHT22;23500;53.268;8.308;2022-11-18T10:34:29;14.80;60.90
37658;DHT22;23500;53.268;8.308;2022-11-18T10:39:25;14.80;59.80
37658;DHT22;23500;53.268;8.308;2022-11-18T10:41:59;14.70;59.60
37658;DHT22;23500;53.268;8.308;2022-11-18T10:47:26;14.70;63.80
37658;DHT22;23500;53.268;8.308;2022-11-18T10:49:54;14.60;62.40
37658;DHT22;23500;53.268;8.308;2022-11-18T10:52:20;14.60;62.10
37658;DHT22;23500;53.268;8.308;2022-11-18T10:55:05;14.50;62.50
37658;DHT22;23500;53.268;8.308;2022-11-18T10:57:35;14.50;60.60
37658;DHT22;23500;53.268;8.308;2022-11-18T11:00:01;14.50;63.50
37658;DHT22;23500;53.268;8.308;2022-11-18T11:02:38;14.40;62.20
37658;DHT22;23500;53.268;8.308;2022-11-18T11:05:24;14.40;61.50
37658;DHT22;23500;53.268;8.308;2022-11-18T11:08:05;14.40;63.10
37658;DHT22;23500;53.268;8.308;2022-11-18T11:10:31;14.40;65.60
37658;DHT22;23500;53.268;8.308;2022-11-18T11:13:14;14.40;64.50
37658;DHT22;23500;53.268;8.308;2022-11-18T11:15:43;14.40;64.30
37658;DHT22;23500;53.268;8.308;2022-11-18T11:18:20;14.40;64.00
37658;DHT22;23500;53.268;8.308;2022-11-18T11:21:19;14.50;62.40
37658;DHT22;23500;53.268;8.308;2022-11-18T11:23:47;14.50;62.80
37658;DHT22;23500;53.268;8.308;2022-11-18T11:37:08;14.70;60.50
37658;DHT22;23500;53.268;8.308;2022-11-18T11:45:52;14.70;62.10
37658;DHT22;23500;53.268;8.308;2022-11-18T11:52:03;14.60;61.90
37658;DHT22;23500;53.268;8.308;2022-11-18T11:55:12;14.60;60.10
37658;DHT22;23500;53.268;8.308;2022-11-18T11:57:41;14.50;61.50
37658;DHT22;23500;53.268;8.308;2022-11-18T12:00:16;14.50;62.30
37658;DHT22;23500;53.268;8.308;2022-11-18T12:05:28;14.40;64.50
37658;DHT22;23500;53.268;8.308;2022-11-18T12:08:00;14.40;62.40
37658;DHT22;23500;53.268;8.308;2022-11-18T12:10:44;14.40;63.30
37658;DHT22;23500;53.268;8.308;2022-11-18T12:16:27;14.30;62.70
37658;DHT22;23500;53.268;8.308;2022-11-18T12:18:59;14.40;63.40
37658;DHT22;23500;53.268;8.308;2022-11-18T12:24:32;14.40;60.40
37658;DHT22;23500;53.268;8.308;2022-11-18T12:27:52;14.40;62.20
37658;DHT22;23500;53.268;8.308;2022-11-18T12:30:00;14.40;60.20
37658;DHT22;23500;53.268;8.308;2022-11-18T12:32:31;14.50;61.30
37658;DHT22;23500;53.268;8.308;2022-11-18T12:40:34;14.60;60.50
37658;DHT22;23500;53.268;8.308;2022-11-18T12:43:01;14.60;59.90
37658;DHT22;23500;53.268;8.308;2022-11-18T12:53:48;14.60;61.00
37658;DHT22;23500;53.268;8.308;2022-11-18T12:58:48;14.60;59.20
37658;DHT22;23500;53.268;8.308;2022-11-18T13:01:17;14.50;60.00
37658;DHT22;23500;53.268;8.308;2022-11-18T13:03:43;14.50;61.10
37658;DHT22;23500;53.268;8.308;2022-11-18T13:06:25;14.50;61.00
37658;DHT22;23500;53.268;8.308;2022-11-18T13:08:57;14.50;63.70
37658;DHT22;23500;53.268;8.308;2022-11-18T13:11:25;14.50;65.40
37658;DHT22;23500;53.268;8.308;2022-11-18T13:14:15;14.50;63.80
37658;DHT22;23500;53.268;8.308;2022-11-18T13:17:00;14.50;64.40
37658;DHT22;23500;53.268;8.308;2022-11-18T13:19:57;14.50;60.10
37658;DHT22;23500;53.268;8.308;2022-11-18T13:22:23;14.40;63.70
37658;DHT22;23500;53.268;8.308;2022-11-18T13:25:24;14.40;63.00
37658;DHT22;23500;53.268;8.308;2022-11-18T13:30:30;14.40;62.00
37658;DHT22;23500;53.268;8.308;2022-11-18T13:32:58;14.40;62.30
37658;DHT22;23500;53.268;8.308;2022-11-18T13:35:26;14.40;64.80
37658;DHT22;23500;53.268;8.308;2022-11-18T13:38:01;14.40;65.70
37658;DHT22;23500;53.268;8.308;2022-11-18T13:40:30;14.40;65.30
37658;DHT22;23500;53.268;8.308;2022-11-18T13:43:02;14.40;63.80
37658;DHT22;23500;53.268;8.308;2022-11-18T13:45:33;14.40;62.00
37658;DHT22;23500;53.268;8.308;2022-11-18T13:48:08;14.40;64.00
37658;DHT22;23500;53.268;8.308;2022-11-18T13:50:40;14.40;62.90
37658;DHT22;23500;53.268;8.308;2022-11-18T13:56:37;14.40;62.70
37658;DHT22;23500;53.268;8.308;2022-11-18T13:58:44;14.40;62.70
37658;DHT22;23500;53.268;8.308;2022-11-18T14:01:24;14.40;65.20
37658;DHT22;23500;53.268;8.308;2022-11-18T14:06:41;14.30;65.10
37658;DHT22;23500;53.268;8.308;2022-11-18T14:11:36;14.30;62.80
37658;DHT22;23500;53.268;8.308;2022-11-18T14:14:02;14.30;62.20
37658;DHT22;23500;53.268;8.308;2022-11-18T14:16:41;14.30;63.80
37658;DHT22;23500;53.268;8.308;2022-11-18T14:19:29;14.30;65.80
37658;DHT22;23500;53.268;8.308;2022-11-18T14:22:05;14.30;63.00
37658;DHT22;23500;53.268;8.308;2022-11-18T14:24:31;14.30;64.40
37658;DHT22;23500;53.268;8.308;2022-11-18T14:26:57;14.20;63.00
37658;DHT22;23500;53.268;8.308;2022-11-18T14:29:23;14.20;64.10
37658;DHT22;23500;53.268;8.308;2022-11-18T14:34:35;14.10;60.70
37658;DHT22;23500;53.268;8.308;2022-11-18T14:37:01;14.10;62.90
37658;DHT22;23500;53.268;8.308;2022-11-18T14:39:29;14.10;64.20
37658;DHT22;23500;53.268;8.308;2022-11-18T14:41:56;14.10;62.30
37658;DHT22;23500;53.268;8.308;2022-11-18T14:44:23;14.20;62.30
37658;DHT22;23500;53.268;8.308;2022-11-18T14:46:56;14.20;62.80
37658;DHT22;23500;53.268;8.308;2022-11-18T14:49:24;14.30;63.20
37658;DHT22;23500;53.268;8.308;2022-11-18T14:51:51;14.30;64.60
37658;DHT22;23500;53.268;8.308;2022-11-18T14:54:19;14.30;61.60
37658;DHT22;23500;53.268;8.308;2022-11-18T14:56:47;14.30;64.00
37658;DHT22;23500;53.268;8.308;2022-11-18T14:59:15;14.30;63.00
37658;DHT22;23500;53.268;8.308;2022-11-18T15:01:42;14.30;64.80
37658;DHT22;23500;53.268;8.308;2022-11-18T15:04:08;14.30;64.50
37658;DHT22;23500;53.268;8.308;2022-11-18T15:06:34;14.30;63.40
37658;DHT22;23500;53.268;8.308;2022-11-18T15:09:00;14.30;65.50
37658;DHT22;23500;53.268;8.308;2022-11-18T15:11:26;14.30;64.10
37658;DHT22;23500;53.268;8.308;2022-11-18T15:13:51;14.30;65.50
37658;DHT22;23500;53.268;8.308;2022-11-18T15:16:20;14.30;65.50
37658;DHT22;23500;53.268;8.308;2022-11-18T15:18:51;14.30;67.00
37658;DHT22;23500;53.268;8.308;2022-11-18T15:21:17;14.30;64.10
37658;DHT22;23500;53.268;8.308;2022-11-18T15:23:43;14.30;64.50
37658;DHT22;23500;53.268;8.308;2022-11-18T15:26:21;14.30;65.40
37658;DHT22;23500;53.268;8.308;2022-11-18T15:28:48;14.30;65.90
37658;DHT22;23500;53.268;8.308;2022-11-18T15:31:15;14.20;62.90
37658;DHT22;23500;53.268;8.308;2022-11-18T15:33:40;14.20;64.90
37658;DHT22;23500;53.268;8.308;2022-11-18T15:36:24;14.20;65.60
37658;DHT22;23500;53.268;8.308;2022-11-18T15:38:51;14.20;66.60
37658;DHT22;23500;53.268;8.308;2022-11-18T15:41:17;14.20;65.10
37658;DHT22;23500;53.268;8.308;2022-11-18T15:43:45;14.10;64.90
37658;DHT22;23500;53.268;8.308;2022-11-18T15:46:10;14.20;64.30
37658;DHT22;23500;53.268;8.308;2022-11-18T15:48:36;14.20;63.50
37658;DHT22;23500;53.268;8.308;2022-11-18T15:51:02;14.20;61.80
37658;DHT22;23500;53.268;8.308;2022-11-18T15:53:28;14.20;61.70
37658;DHT22;23500;53.268;8.308;2022-11-18T16:01:34;14.30;62.50
37658;DHT22;23500;53.268;8.308;2022-11-18T16:04:01;14.30;59.30
37658;DHT22;23500;53.268;8.308;2022-11-18T16:06:27;14.30;61.00
37658;DHT22;23500;53.268;8.308;2022-11-18T16:08:54;14.30;63.80
37658;DHT22;23500;53.268;8.308;2022-11-18T16:11:20;14.30;61.40
37658;DHT22;23500;53.268;8.308;2022-11-18T16:14:06;14.30;60.80
37658;DHT22;23500;53.268;8.308;2022-11-18T16:16:33;14.20;61.50
37658;DHT22;23500;53.268;8.308;2022-11-18T16:19:00;14.20;64.00
37658;DHT22;23500;53.268;8.308;2022-11-18T16:21:28;14.20;62.80
37658;DHT22;23500;53.268;8.308;2022-11-18T16:23:55;14.20;63.10
37658;DHT22;23500;53.268;8.308;2022-11-18T16:26:25;14.20;61.50
37658;DHT22;23500;53.268;8.308;2022-11-18T16:28:52;14.20;61.20
37658;DHT22;23500;53.268;8.308;2022-11-18T16:31:18;14.10;60.60
37658;DHT22;23500;53.268;8.308;2022-11-18T16:34:14;14.10;60.50
37658;DHT22;23500;53.268;8.308;2022-11-18T16:36:43;14.10;63.00
37658;DHT22;23500;53.268;8.308;2022-11-18T16:39:20;14.00;61.20
37658;DHT22;23500;53.268;8.308;2022-11-18T16:42:00;14.00;61.00
37658;DHT22;23500;53.268;8.308;2022-11-18T16:44:26;14.00;62.70
37658;DHT22;23500;53.268;8.308;2022-11-18T16:46:56;14.00;62.60
37658;DHT22;23500;53.268;8.308;2022-11-18T16:49:24;14.00;62.70
37658;DHT22;23500;53.268;8.308;2022-11-18T16:51:51;14.00;61.50
37658;DHT22;23500;53.268;8.308;2022-11-18T16:54:25;14.00;60.80
37658;DHT22;23500;53.268;8.308;2022-11-18T16:56:53;14.00;59.70
37658;DHT22;23500;53.268;8.308;2022-11-18T16:59:22;14.10;60.50
37658;DHT22;23500;53.268;8.308;2022-11-18T17:01:49;14.10;60.20
37658;DHT22;23500;53.268;8.308;2022-11-18T17:04:16;14.10;59.60
37658;DHT22;23500;53.268;8.308;2022-11-18T17:06:42;14.20;58.70
37658;DHT22;23500;53.268;8.308;2022-11-18T17:09:16;14.10;59.40
37658;DHT22;23500;53.268;8.308;2022-11-18T17:11:42;14.20;61.00
37658;DHT22;23500;53.268;8.308;2022-11-18T17:14:08;14.20;58.50
37658;DHT22;23500;53.268;8.308;2022-11-18T17:16:34;14.20;59.20
37658;DHT22;23500;53.268;8.308;2022-11-18T17:19:00;14.20;59.20
37658;DHT22;23500;53.268;8.308;2022-11-18T17:21:27;14.20;60.50
37658;DHT22;23500;53.268;8.308;2022-11-18T17:23:54;14.20;61.10
37658;DHT22;23500;53.268;8.308;2022-11-18T17:26:23;14.20;60.40
37658;DHT22;23500;53.268;8.308;2022-11-18T17:28:49;14.10;60.50
37658;DHT22;23500;53.268;8.308;2022-11-18T17:31:20;14.10;62.80
37658;DHT22;23500;53.268;8.308;2022-11-18T17:33:47;14.10;60.50
37658;DHT22;23500;53.268;8.308;2022-11-18T17:36:21;14.10;60.10
37658;DHT22;23500;53.268;8.308;2022-11-18T17:38:49;14.10;60.30
37658;DHT22;23500;53.268;8.308;2022-11-18T17:41:17;14.10;60.50
37658;DHT22;23500;53.268;8.308;2022-11-18T17:44:03;14.10;60.80